< < Back
Terminal Aerodrome Forecast


Current Version              Previous Versions:   1  2  3  4  5  6  7  8  9  

Terminal Aerodrome Forecast

376
FTUS42 KJAX 201700
TAFSSI
TAF
KSSI 201720Z 2018/2118 12008KT P6SM BKN035
     FM210300 13004KT P6SM SCT030 BKN250
     FM210900 00000KT P6SM SCT250
      TEMPO 2110/2112 5SM BR
     FM211500 31006KT P6SM FEW250=

Latest METAR

016
SAUS70 KWBC 210700 RRG
MTRSSI
METAR KSSI 210653Z AUTO 24006KT 10SM CLR 18/18 A2996 RMK AO2 SLP143
T01830183


USA.gov is the U.S. government's official web portal to all federal, state and local government web resources and services.